Main page
Satellite images 10-day forecastsClimateMarine weather Cyclones Lightning AirportsFAQ Newsletter About
Weather : Europe Africa North America South America Asia Australia-Oceania Others
Languages Contact

Alpine, Texas, United States

Alpine-Casparis Municipal Airport

latitude: 30-23-03N, longitude: 103-41-00W, elevation: 1376 m


METAR: KE38 281355Z AUTO 36014G22KT 10SM OVC021 06/01 A3028 RMK AO2 T00610011
TAF: missing

Time: 09:21 (14:21 UTC)

Current weather observation

The report was made 26 minutes ago, at 13:55 UTC
Wind 14 kt from the North with gusts up to 22 kt
Temperature 6°C
Humidity 70%
Pressure 1025 hPa
Visibility: 16.1 km
Overcast at a height of 2100 ft

Change units
The information on this site is subject to a disclaimer
Weather : Europe Africa North America South America Asia Australia-Oceania Others
Satellite images 10-day forecastsClimateMarine weather Cyclones Lightning AirportsFAQ Languages Contact Newsletter About